createdAt,value
2022-08-18T00:00:29.610Z,57.57
2022-08-18T00:03:12.321Z,58.09
2022-08-18T00:05:47.623Z,55.90
2022-08-18T00:08:14.322Z,53.92
2022-08-18T00:10:42.479Z,55.89
2022-08-18T00:13:09.209Z,54.10
2022-08-18T00:15:41.467Z,55.08
2022-08-18T00:18:15.523Z,58.61
2022-08-18T00:20:42.164Z,59.10
2022-08-18T00:23:09.518Z,59.43
2022-08-18T00:25:36.215Z,62.23
2022-08-18T00:28:03.488Z,60.23
2022-08-18T00:30:30.057Z,60.52
2022-08-18T00:33:01.039Z,62.37
2022-08-18T00:35:31.595Z,62.31
2022-08-18T00:38:01.982Z,60.46
2022-08-18T00:40:37.646Z,59.16
2022-08-18T00:43:07.859Z,57.37
2022-08-18T00:45:38.802Z,55.67
2022-08-18T00:48:07.422Z,57.66
2022-08-18T00:50:46.609Z,59.24
2022-08-18T00:53:19.008Z,61.23
2022-08-18T00:55:53.830Z,58.22
2022-08-18T00:58:28.396Z,56.93
2022-08-18T01:00:55.210Z,57.61
2022-08-18T01:03:24.671Z,58.65
2022-08-18T01:06:06.845Z,58.72
2022-08-18T01:08:33.893Z,59.83
2022-08-18T01:11:02.398Z,62.25
2022-08-18T01:13:33.022Z,64.89
2022-08-18T01:16:20.491Z,75.97
2022-08-18T01:19:05.867Z,62.89
2022-08-18T01:21:51.949Z,54.25
2022-08-18T01:24:43.287Z,54.53
2022-08-18T01:27:11.099Z,51.91
2022-08-18T01:29:41.582Z,51.05
2022-08-18T01:32:11.121Z,52.07
2022-08-18T01:34:37.780Z,53.14
2022-08-18T01:37:05.714Z,52.60
2022-08-18T01:41:11.075Z,51.38
2022-08-18T01:42:19.298Z,50.22
2022-08-18T01:44:51.193Z,50.36
2022-08-18T01:47:18.697Z,50.47
2022-08-18T01:49:45.861Z,49.70
2022-08-18T01:52:22.000Z,50.75
2022-08-18T01:54:49.207Z,52.13
2022-08-18T01:57:16.914Z,52.25
2022-08-18T01:59:43.602Z,53.01
2022-08-18T02:02:18.426Z,53.57
2022-08-18T02:04:46.718Z,54.58
2022-08-18T02:07:14.983Z,55.72
2022-08-18T02:09:43.802Z,54.97
2022-08-18T02:12:11.559Z,55.66
2022-08-18T02:14:39.405Z,56.79
2022-08-18T02:17:09.496Z,57.34
2022-08-18T02:19:38.878Z,58.89
2022-08-18T02:22:08.375Z,59.18
2022-08-18T02:24:35.378Z,61.00
2022-08-18T02:27:01.971Z,60.84
2022-08-18T02:29:28.729Z,62.63
2022-08-18T02:31:55.957Z,60.56
2022-08-18T02:34:25.523Z,61.13
2022-08-18T02:36:52.354Z,63.23
2022-08-18T02:39:18.955Z,62.37
2022-08-18T02:41:45.627Z,63.54
2022-08-18T02:44:12.440Z,63.95
2022-08-18T02:46:39.375Z,63.46
2022-08-18T02:49:08.212Z,63.96
2022-08-18T02:51:35.126Z,64.12
2022-08-18T02:54:01.807Z,64.56
2022-08-18T02:56:39.981Z,65.84
2022-08-18T02:59:14.126Z,66.37
2022-08-18T03:01:44.111Z,68.02
2022-08-18T03:04:15.604Z,67.66
2022-08-18T03:06:42.390Z,71.02
2022-08-18T03:09:11.793Z,68.43
2022-08-18T03:11:39.075Z,69.04
2022-08-18T03:14:06.294Z,69.43
2022-08-18T03:16:48.788Z,70.00
2022-08-18T03:19:23.893Z,70.96
2022-08-18T03:21:50.673Z,70.76
2022-08-18T03:24:22.362Z,70.15
2022-08-18T03:26:50.000Z,70.30
2022-08-18T03:29:16.918Z,69.61
2022-08-18T03:31:44.554Z,69.84
2022-08-18T03:34:12.130Z,70.00
2022-08-18T03:36:39.672Z,69.49
2022-08-18T03:39:09.888Z,69.29
2022-08-18T03:41:43.805Z,69.98
2022-08-18T03:44:27.919Z,69.05
2022-08-18T03:46:54.642Z,70.62
2022-08-18T03:49:21.313Z,70.46
2022-08-18T03:51:48.870Z,70.56
2022-08-18T03:54:18.038Z,70.27
2022-08-18T03:56:47.235Z,71.16
2022-08-18T03:59:23.566Z,72.70
2022-08-18T04:01:52.126Z,71.16
2022-08-18T04:04:21.815Z,70.67
2022-08-18T04:06:54.307Z,71.89
2022-08-18T04:09:23.027Z,72.81
2022-08-18T04:11:52.389Z,72.43
2022-08-18T04:14:21.901Z,72.07
2022-08-18T04:16:49.286Z,72.46
2022-08-18T04:19:27.476Z,71.79
2022-08-18T04:21:57.118Z,72.66
2022-08-18T04:24:26.396Z,72.75
2022-08-18T04:26:53.771Z,72.32
2022-08-18T04:29:21.806Z,71.47
2022-08-18T04:31:50.217Z,72.59
2022-08-18T04:34:18.223Z,72.88
2022-08-18T04:36:44.971Z,72.09
2022-08-18T04:39:13.188Z,72.75
2022-08-18T04:41:43.632Z,71.23
2022-08-18T04:44:12.397Z,70.98
2022-08-18T04:46:46.377Z,75.61
2022-08-18T04:49:13.149Z,73.49
2022-08-18T04:52:30.857Z,71.63
2022-08-18T04:54:52.805Z,71.69
2022-08-18T04:57:21.258Z,71.66
2022-08-18T04:59:50.591Z,72.49
2022-08-18T05:02:18.585Z,72.02
2022-08-18T05:04:47.356Z,71.22
2022-08-18T05:07:18.808Z,71.98
2022-08-18T05:09:45.702Z,74.19
2022-08-18T05:12:14.971Z,72.59
2022-08-18T05:14:44.666Z,74.49
2022-08-18T05:17:12.347Z,75.02
2022-08-18T05:19:42.262Z,75.76
2022-08-18T05:22:11.213Z,75.22
2022-08-18T05:24:39.765Z,74.56
2022-08-18T05:27:07.733Z,74.30
2022-08-18T05:29:41.889Z,73.62
2022-08-18T05:32:36.916Z,72.95
2022-08-18T05:35:12.579Z,75.60
2022-08-18T05:38:15.633Z,77.96
2022-08-18T05:40:46.199Z,73.41
2022-08-18T05:43:15.292Z,74.39
2022-08-18T05:45:42.239Z,73.98
2022-08-18T05:48:08.904Z,73.09
2022-08-18T05:50:37.964Z,72.22
2022-08-18T05:53:14.986Z,71.94
2022-08-18T05:56:07.407Z,71.69
2022-08-18T05:58:47.105Z,70.72
2022-08-18T06:01:18.743Z,70.41
2022-08-18T06:03:56.413Z,68.92
2022-08-18T06:06:29.664Z,68.70
2022-08-18T06:09:40.479Z,68.21
2022-08-18T06:12:20.303Z,70.78
2022-08-18T06:14:47.069Z,69.25
2022-08-18T06:17:51.461Z,69.66
2022-08-18T06:21:11.919Z,70.28
2022-08-18T06:23:51.515Z,71.64
2022-08-18T06:26:37.498Z,69.18
2022-08-18T06:29:24.923Z,68.47
2022-08-18T06:32:03.482Z,69.33
2022-08-18T06:34:34.368Z,69.48
2022-08-18T06:37:07.419Z,67.39
2022-08-18T06:39:52.453Z,68.22
2022-08-18T06:42:21.684Z,65.37
2022-08-18T06:44:53.019Z,63.73
2022-08-18T06:47:19.546Z,65.24
2022-08-18T06:49:54.943Z,63.73
2022-08-18T06:52:29.191Z,62.27
2022-08-18T06:54:59.516Z,61.73
2022-08-18T06:57:28.044Z,59.47
2022-08-18T07:00:00.525Z,57.95
2022-08-18T07:02:43.572Z,53.86
2022-08-18T07:05:19.774Z,54.41
2022-08-18T07:08:00.514Z,51.58
2022-08-18T07:10:40.261Z,51.53
2022-08-18T07:13:30.100Z,51.41
2022-08-18T07:16:40.301Z,49.68
2022-08-18T07:19:16.559Z,47.49
2022-08-18T07:21:44.319Z,47.24
2022-08-18T07:24:25.169Z,45.92
2022-08-18T07:27:09.236Z,46.24
2022-08-18T07:29:40.523Z,47.10
2022-08-18T07:32:21.068Z,46.25
2022-08-18T07:34:53.822Z,42.91
2022-08-18T07:37:29.317Z,43.14
2022-08-18T07:40:45.244Z,41.48
2022-08-18T07:43:50.248Z,40.67
2022-08-18T07:46:32.579Z,39.50
2022-08-18T07:49:00.588Z,38.30
2022-08-18T07:51:43.706Z,38.73
2022-08-18T07:54:47.840Z,39.83
2022-08-18T07:57:20.513Z,40.99
2022-08-18T08:00:10.546Z,41.91
2022-08-18T08:02:56.683Z,41.88
2022-08-18T08:05:40.522Z,42.06
2022-08-18T08:08:25.931Z,42.02
2022-08-18T08:11:01.556Z,43.11
2022-08-18T08:14:13.614Z,44.14
2022-08-18T08:16:48.853Z,43.16
2022-08-18T08:19:59.102Z,43.35
2022-08-18T08:22:49.760Z,42.63
2022-08-18T08:25:45.214Z,41.95
2022-08-18T08:28:28.139Z,42.95
2022-08-18T08:34:06.007Z,41.04
2022-08-18T08:36:37.416Z,41.09
2022-08-18T08:39:06.726Z,41.22
2022-08-18T08:41:49.708Z,39.70
2022-08-18T08:44:34.418Z,39.14
2022-08-18T08:47:15.402Z,37.32
2022-08-18T08:50:00.872Z,36.16
2022-08-18T08:52:40.538Z,36.92
2022-08-18T08:55:21.453Z,36.45
2022-08-18T08:57:53.719Z,35.29
2022-08-18T09:00:21.256Z,34.67
2022-08-18T09:03:10.558Z,34.82
2022-08-18T09:06:00.101Z,35.19
2022-08-18T09:08:37.152Z,35.56
2022-08-18T09:11:32.272Z,36.28
2022-08-18T09:14:15.593Z,36.53
2022-08-18T09:17:17.250Z,36.70
2022-08-18T09:20:05.599Z,37.02
2022-08-18T09:22:50.002Z,36.58
2022-08-18T09:25:34.677Z,37.24
2022-08-18T09:28:12.064Z,36.87
2022-08-18T09:30:47.501Z,37.65
2022-08-18T09:33:19.735Z,37.43
2022-08-18T09:35:55.434Z,37.03
2022-08-18T09:38:47.097Z,36.52
2022-08-18T09:41:38.009Z,36.03
2022-08-18T09:44:17.729Z,36.15
2022-08-18T09:46:48.403Z,35.42
2022-08-18T09:49:27.075Z,34.71
2022-08-18T09:52:02.790Z,34.41
2022-08-18T09:54:34.216Z,34.72
2022-08-18T09:57:19.261Z,35.30
2022-08-18T09:59:47.681Z,35.17
2022-08-18T10:02:32.022Z,35.31
2022-08-18T10:05:20.147Z,34.63
2022-08-18T10:07:53.325Z,34.25
2022-08-18T10:13:38.881Z,35.33
2022-08-18T10:16:31.953Z,34.28
2022-08-18T10:19:39.700Z,33.87
2022-08-18T10:22:09.938Z,33.97
2022-08-18T10:24:56.511Z,34.01
2022-08-18T10:27:44.494Z,33.44
2022-08-18T10:30:34.323Z,33.61
2022-08-18T10:33:17.691Z,33.24
2022-08-18T10:35:59.829Z,32.44
2022-08-18T10:38:49.029Z,32.22
2022-08-18T10:41:37.407Z,33.08
2022-08-18T10:44:28.315Z,33.94
2022-08-18T10:46:58.407Z,33.81
2022-08-18T10:49:27.722Z,32.63
2022-08-18T10:52:12.899Z,33.08
2022-08-18T10:55:06.349Z,33.62
2022-08-18T10:57:59.088Z,34.87
2022-08-18T11:00:39.536Z,34.58
2022-08-18T11:06:14.662Z,32.46
2022-08-18T11:08:55.006Z,32.24
2022-08-18T11:11:53.171Z,32.49
2022-08-18T11:14:37.864Z,32.18
2022-08-18T11:17:26.415Z,32.47
2022-08-18T11:19:54.047Z,33.08
2022-08-18T11:22:31.598Z,33.07
2022-08-18T11:25:01.544Z,32.00
2022-08-18T11:27:35.781Z,31.55
2022-08-18T11:30:05.815Z,31.52
2022-08-18T11:32:36.705Z,31.79
2022-08-18T11:35:11.374Z,31.09
2022-08-18T11:37:53.377Z,31.42
2022-08-18T11:41:02.299Z,31.49
2022-08-18T11:43:13.302Z,30.91
2022-08-18T11:45:54.220Z,31.44
2022-08-18T11:51:17.543Z,30.26
2022-08-18T11:56:40.139Z,31.77
2022-08-18T11:59:25.559Z,31.66
2022-08-18T12:02:18.336Z,31.11
2022-08-18T12:04:51.943Z,30.52
2022-08-18T12:07:28.700Z,29.75
2022-08-18T12:10:26.306Z,29.72
2022-08-18T12:12:57.695Z,29.92
2022-08-18T12:15:44.166Z,30.33
2022-08-18T12:18:26.373Z,30.69
2022-08-18T12:20:57.434Z,29.82
2022-08-18T12:23:24.394Z,29.92
2022-08-18T12:25:51.547Z,29.66
2022-08-18T12:28:19.692Z,29.41
2022-08-18T12:30:57.155Z,29.70
2022-08-18T12:33:47.683Z,30.47
2022-08-18T12:36:15.683Z,29.37
2022-08-18T12:38:45.026Z,30.06
2022-08-18T12:41:23.537Z,29.86
2022-08-18T12:43:58.833Z,30.04
2022-08-18T12:46:26.750Z,30.12
2022-08-18T12:48:53.470Z,29.73
2022-08-18T12:51:20.896Z,28.82
2022-08-18T12:53:58.196Z,29.70
2022-08-18T12:56:31.129Z,29.41
2022-08-18T12:59:00.608Z,30.26
2022-08-18T13:01:32.542Z,29.91
2022-08-18T13:04:11.161Z,30.37
2022-08-18T13:06:59.208Z,29.46
2022-08-18T13:09:35.170Z,29.86
2022-08-18T13:12:14.622Z,30.60
2022-08-18T13:14:43.393Z,29.62
2022-08-18T13:17:15.327Z,29.33
2022-08-18T13:19:57.136Z,30.03
2022-08-18T13:22:32.080Z,30.32
2022-08-18T13:25:00.400Z,30.57
2022-08-18T13:27:27.172Z,30.69
2022-08-18T13:30:00.781Z,30.83
2022-08-18T13:32:31.057Z,30.19
2022-08-18T13:35:09.165Z,30.81
2022-08-18T13:37:41.618Z,31.28
2022-08-18T13:40:12.625Z,31.35
2022-08-18T13:42:57.850Z,31.74
2022-08-18T13:45:26.210Z,31.97
2022-08-18T13:47:53.017Z,30.52
2022-08-18T13:50:21.017Z,30.31
2022-08-18T13:53:00.896Z,30.68
2022-08-18T13:55:29.213Z,30.44
2022-08-18T13:57:56.341Z,30.09
2022-08-18T14:00:29.856Z,29.48
2022-08-18T14:02:59.002Z,29.72
2022-08-18T14:05:36.832Z,28.42
2022-08-18T14:08:18.893Z,29.78
2022-08-18T14:10:51.059Z,29.99
2022-08-18T14:13:20.791Z,29.97
2022-08-18T14:15:55.009Z,30.43
2022-08-18T14:18:29.062Z,30.61
2022-08-18T14:21:16.921Z,30.75
2022-08-18T14:24:10.582Z,31.17
2022-08-18T14:26:50.911Z,30.77
2022-08-18T14:29:45.438Z,30.83
2022-08-18T14:32:07.219Z,30.89
2022-08-18T14:34:33.883Z,30.94
2022-08-18T14:37:52.442Z,31.01
2022-08-18T14:40:35.003Z,30.81
2022-08-18T14:43:08.008Z,31.23
2022-08-18T14:45:35.755Z,30.40
2022-08-18T14:48:38.602Z,30.64
2022-08-18T14:55:03.939Z,30.75
2022-08-18T14:58:16.202Z,30.87
2022-08-18T15:01:28.190Z,30.85
2022-08-18T15:07:47.944Z,31.14
2022-08-18T15:10:47.907Z,31.01
2022-08-18T15:13:15.307Z,31.54
2022-08-18T15:15:51.747Z,31.05
2022-08-18T15:18:22.844Z,31.53
2022-08-18T15:21:35.102Z,31.95
2022-08-18T15:24:20.287Z,31.41
2022-08-18T15:26:51.863Z,31.54
2022-08-18T15:29:27.951Z,31.93
2022-08-18T15:32:01.926Z,32.05
2022-08-18T15:34:31.769Z,32.17
2022-08-18T15:37:09.811Z,32.34
2022-08-18T15:39:36.977Z,31.82
2022-08-18T15:42:10.617Z,32.34
2022-08-18T15:44:38.094Z,32.26
2022-08-18T15:47:05.830Z,32.27
2022-08-18T15:49:36.175Z,32.86
2022-08-18T15:52:03.007Z,33.21
2022-08-18T15:54:29.565Z,33.07
2022-08-18T15:56:58.409Z,33.27
2022-08-18T15:59:34.251Z,33.65
2022-08-18T16:02:11.787Z,33.61
2022-08-18T16:04:41.247Z,33.41
2022-08-18T16:07:10.030Z,33.96
2022-08-18T16:09:36.926Z,33.94
2022-08-18T16:12:04.002Z,33.56
2022-08-18T16:14:32.067Z,33.99
2022-08-18T16:17:00.298Z,34.29
2022-08-18T16:19:30.145Z,34.46
2022-08-18T16:21:58.255Z,33.90
2022-08-18T16:24:25.425Z,34.32
2022-08-18T16:26:52.207Z,34.73
2022-08-18T16:29:19.423Z,34.69
2022-08-18T16:31:46.589Z,34.94
2022-08-18T16:34:13.247Z,34.16
2022-08-18T16:36:40.002Z,34.66
2022-08-18T16:39:06.560Z,35.31
2022-08-18T16:41:33.896Z,34.61
2022-08-18T16:44:00.572Z,35.04
2022-08-18T16:46:28.287Z,34.91
2022-08-18T16:48:57.564Z,35.33
2022-08-18T16:51:26.142Z,35.20
2022-08-18T16:53:54.515Z,35.29
2022-08-18T16:56:26.832Z,35.82
2022-08-18T16:59:12.716Z,35.52
2022-08-18T17:02:12.089Z,36.27
2022-08-18T17:04:38.711Z,36.76
2022-08-18T17:07:06.076Z,36.13
2022-08-18T17:09:34.422Z,36.60
2022-08-18T17:12:01.829Z,36.12
2022-08-18T17:14:31.273Z,36.32
2022-08-18T17:17:00.526Z,36.66
2022-08-18T17:19:31.368Z,36.60
2022-08-18T17:21:58.008Z,36.48
2022-08-18T17:24:31.731Z,37.01
2022-08-18T17:27:27.316Z,37.08
2022-08-18T17:30:07.177Z,37.44
2022-08-18T17:32:49.744Z,38.42
2022-08-18T17:35:28.639Z,39.09
2022-08-18T17:38:07.853Z,39.54
2022-08-18T17:40:46.402Z,40.16
2022-08-18T17:43:17.395Z,40.51
2022-08-18T17:45:45.567Z,41.02
2022-08-18T17:48:22.908Z,41.56
2022-08-18T17:51:31.302Z,41.66
2022-08-18T17:54:09.803Z,41.91
2022-08-18T17:56:43.509Z,42.78
2022-08-18T17:59:45.432Z,42.86
2022-08-18T18:02:29.759Z,42.74
2022-08-18T18:05:02.487Z,43.43
2022-08-18T18:07:38.634Z,43.09
2022-08-18T18:10:27.464Z,43.32
2022-08-18T18:13:16.391Z,43.66
2022-08-18T18:16:11.835Z,44.18
2022-08-18T18:18:43.352Z,44.18
2022-08-18T18:21:16.182Z,44.61
2022-08-18T18:23:53.003Z,44.74
2022-08-18T18:26:33.615Z,44.97
2022-08-18T18:29:32.323Z,45.56
2022-08-18T18:32:04.491Z,45.83
2022-08-18T18:34:39.487Z,45.38
2022-08-18T18:37:27.651Z,45.91
2022-08-18T18:40:06.729Z,46.32
2022-08-18T18:42:36.056Z,46.64
2022-08-18T18:45:09.452Z,47.77
2022-08-18T18:47:47.489Z,46.98
2022-08-18T18:50:35.515Z,47.20
2022-08-18T18:53:02.343Z,47.47
2022-08-18T18:55:35.940Z,48.24
2022-08-18T18:58:22.557Z,51.37
2022-08-18T19:00:55.996Z,51.71
2022-08-18T19:03:37.660Z,55.67
2022-08-18T19:06:36.695Z,72.25
2022-08-18T19:09:31.737Z,78.62
2022-08-18T19:12:33.321Z,83.22
2022-08-18T19:15:06.666Z,96.15
2022-08-18T19:17:51.860Z,100.00
2022-08-18T19:20:24.913Z,96.53
2022-08-18T19:23:06.504Z,100.00
2022-08-18T19:25:41.448Z,95.62
2022-08-18T19:28:16.550Z,100.00
2022-08-18T19:30:47.499Z,100.00
2022-08-18T19:33:25.792Z,100.00
2022-08-18T19:36:19.372Z,100.00
2022-08-18T19:39:03.207Z,100.00
2022-08-18T19:41:39.545Z,100.00
2022-08-18T19:44:29.146Z,100.00
2022-08-18T19:47:10.269Z,100.00
2022-08-18T19:49:48.841Z,100.00
2022-08-18T19:52:53.812Z,100.00
2022-08-18T19:55:33.031Z,100.00
2022-08-18T19:58:25.179Z,100.00
2022-08-18T20:01:21.296Z,100.00
2022-08-18T20:03:58.995Z,100.00
2022-08-18T20:06:44.605Z,100.00
2022-08-18T20:09:50.049Z,100.00
2022-08-18T20:12:42.108Z,100.00
2022-08-18T20:15:19.237Z,100.00
2022-08-18T20:17:58.798Z,100.00
2022-08-18T20:20:33.301Z,100.00
2022-08-18T20:23:01.583Z,100.00
2022-08-18T20:25:38.858Z,100.00
2022-08-18T20:28:11.779Z,100.00
2022-08-18T20:31:12.882Z,100.00
2022-08-18T20:34:04.050Z,100.00
2022-08-18T20:36:36.711Z,100.00
2022-08-18T20:39:32.380Z,100.00
2022-08-18T20:42:04.857Z,100.00
2022-08-18T20:44:36.613Z,100.00
2022-08-18T20:47:37.395Z,100.00
2022-08-18T20:50:37.853Z,100.00
2022-08-18T20:53:18.286Z,100.00
2022-08-18T20:56:32.416Z,100.00
2022-08-18T20:59:22.883Z,100.00
2022-08-18T21:02:20.584Z,100.00
2022-08-18T21:04:50.363Z,100.00
2022-08-18T21:07:57.906Z,100.00
2022-08-18T21:10:29.820Z,100.00
2022-08-18T21:13:00.115Z,100.00
2022-08-18T21:15:35.902Z,100.00
2022-08-18T21:18:06.652Z,100.00
2022-08-18T21:20:34.329Z,100.00
2022-08-18T21:23:07.383Z,100.00
2022-08-18T21:25:35.002Z,100.00
2022-08-18T21:28:04.054Z,100.00
2022-08-18T21:30:31.904Z,100.00
2022-08-18T21:32:58.599Z,100.00
2022-08-18T21:35:30.266Z,100.00
2022-08-18T21:37:58.426Z,100.00
2022-08-18T21:40:49.176Z,100.00
2022-08-18T21:43:49.057Z,100.00
2022-08-18T21:46:28.842Z,100.00
2022-08-18T21:49:00.543Z,100.00
2022-08-18T21:51:44.640Z,100.00
2022-08-18T21:54:19.152Z,100.00
2022-08-18T21:56:45.973Z,100.00
2022-08-18T21:59:14.185Z,100.00
2022-08-18T22:01:56.463Z,100.00
2022-08-18T22:04:47.386Z,100.00
2022-08-18T22:07:34.812Z,100.00
2022-08-18T22:10:42.506Z,100.00
2022-08-18T22:13:46.186Z,100.00
2022-08-18T22:16:25.571Z,100.00
2022-08-18T22:18:52.157Z,100.00
2022-08-18T22:21:38.744Z,100.00
2022-08-18T22:24:20.249Z,100.00
2022-08-18T22:27:12.430Z,100.00
2022-08-18T22:30:03.925Z,100.00
2022-08-18T22:32:36.429Z,100.00
2022-08-18T22:35:05.885Z,100.00
2022-08-18T22:37:40.139Z,100.00
2022-08-18T22:40:12.277Z,100.00
2022-08-18T22:42:40.626Z,100.00
2022-08-18T22:45:13.826Z,100.00
2022-08-18T22:47:47.539Z,100.00
2022-08-18T22:50:14.427Z,100.00
2022-08-18T22:52:44.194Z,100.00
2022-08-18T22:55:14.622Z,100.00
2022-08-18T22:57:44.456Z,100.00
2022-08-18T23:00:17.357Z,100.00
2022-08-18T23:02:47.864Z,100.00
2022-08-18T23:05:15.225Z,100.00
2022-08-18T23:07:42.675Z,100.00
2022-08-18T23:10:13.435Z,100.00
2022-08-18T23:12:43.129Z,100.00
2022-08-18T23:15:13.375Z,100.00
2022-08-18T23:17:41.836Z,100.00
2022-08-18T23:20:12.544Z,100.00
2022-08-18T23:22:45.606Z,100.00
2022-08-18T23:25:13.312Z,100.00
2022-08-18T23:27:40.989Z,100.00
2022-08-18T23:30:08.346Z,100.00
2022-08-18T23:32:34.991Z,100.00
2022-08-18T23:35:02.480Z,100.00
2022-08-18T23:37:29.169Z,100.00
2022-08-18T23:39:55.985Z,100.00
2022-08-18T23:42:23.297Z,100.00
2022-08-18T23:44:50.365Z,100.00
2022-08-18T23:47:21.040Z,100.00
2022-08-18T23:49:48.374Z,100.00
2022-08-18T23:52:15.141Z,100.00
2022-08-18T23:54:41.870Z,100.00
2022-08-18T23:57:08.567Z,100.00
2022-08-18T23:59:35.267Z,100.00
